Drake Field Fayetteville US
ICAO: KFYV
IATA: FYV
Category: Medium
Scheduled Services: No

Elevation: 1251 ft
TransAlt. 18000 ft.

Airport Communications:
RAZORBACK APP/DEP:121
ATIS:133.1
CTAF:128
GND:121.8
JONESBORO RDO:122.3
TWR:128
UNICOM:122.95

KFYV Zoom In..

Runways:

(A) RW 16 length 6005 ft width 100 ft
LOC 111.90 / hdg 164

(B) RW 34 length 6005 ft width 100 ft
LOC 111.90 / hdg 344

Location; KFYV
Day. 20 / Time. 19.53 Zulu
* Altimeter: 29.87
* Temperature: 36° c. 96.8°f.
* Wind from: 190° Speed 06 kn.
Dewpoint: 23° c.
Visibility: 10 Statute Miles.
Clouds: Clear (automated report).

KFYV 201953Z 19006KT 10SM CLR 36/23 A2987 RMK AO2 SLP094 T03560228


Wind From 190°
Speed 06 kn.

 
 
jpsmedia.com for Web Design worldairports.se 2018   terms of use